weather.gov     
National Weather Service

Terminal Aerodrome Forecast
NWS Homepage
This page is being discontinued on March 12, 2014.
The same data is available at this site. Please update your bookmarks.
Thank you, and we apologize for the inconvenience.
Please send an email to SR-SRH.Webmaster@noaa.gov with any concerns.


Current Version
Previous Version:    01  02  03  04  05  06  07  08  09  10  11  12  13  14  15  16  17  18  19  20  21  22  23  24  25  26  27  28  29  30  
   31  32  33  34  35  36  37  38  39  40  41  42  43  
[Printable]
447
FTUS44 KCRP 201700
TAFALI
TAF
KALI 201736Z 2018/2118 09011KT P6SM VCSH SCT035 BKN050
      TEMPO 2018/2021 3SM SHRA BR BKN015 OVC030
     FM202100 10010KT P6SM VCTS SCT030CB BKN100
      TEMPO 2021/2024 3SM TSRA BR BKN030CB
     FM210100 VRB03KT P6SM SCT025 BKN200
      TEMPO 2109/2113 4SM BR BKN019
     FM211400 06008KT P6SM SCT025 BKN035=


U.S. Dept. of Commerce
NOAA National Weather Service
1325 East West Highway
Silver Spring, MD 20910
E-mail: w-nws.webmaster@noaa.gov
Page last modified: May 16, 2007
NATIONAL WEATHER SERVICE: for Safety, for Work, for Fun - FOR LIFE